sensor_id;sensor_type;location;lat;lon;timestamp;pressure;altitude;pressure_sealevel;temperature;humidity
7022;BME280;3552;42.664;23.406;2022-10-28T00:01:41;49502.03;;;-141.28;100.00
7022;BME280;3552;42.664;23.406;2022-10-28T00:04:08;49503.97;;;-141.28;100.00
7022;BME280;3552;42.664;23.406;2022-10-28T00:06:36;49482.41;;;-141.28;100.00
7022;BME280;3552;42.664;23.406;2022-10-28T00:09:04;49490.25;;;-141.28;100.00
7022;BME280;3552;42.664;23.406;2022-10-28T00:11:33;49484.34;;;-141.28;100.00
7022;BME280;3552;42.664;23.406;2022-10-28T00:14:03;49470.63;;;-141.28;100.00
7022;BME280;3552;42.664;23.406;2022-10-28T00:16:33;49482.41;;;-141.28;100.00
7022;BME280;3552;42.664;23.406;2022-10-28T00:19:03;49523.59;;;-141.28;100.00
7022;BME280;3552;42.664;23.406;2022-10-28T00:21:32;49486.31;;;-141.28;100.00
7022;BME280;3552;42.664;23.406;2022-10-28T00:24:00;49478.47;;;-141.28;100.00
7022;BME280;3552;42.664;23.406;2022-10-28T00:26:30;49498.09;;;-141.28;100.00
7022;BME280;3552;42.664;23.406;2022-10-28T00:28:58;49511.84;;;-141.28;100.00
7022;BME280;3552;42.664;23.406;2022-10-28T00:31:27;49529.50;;;-141.28;100.00
7022;BME280;3552;42.664;23.406;2022-10-28T00:33:55;49500.06;;;-141.28;100.00
7022;BME280;3552;42.664;23.406;2022-10-28T00:36:24;49498.09;;;-141.28;100.00
7022;BME280;3552;42.664;23.406;2022-10-28T00:38:53;49527.53;;;-141.28;100.00
7022;BME280;3552;42.664;23.406;2022-10-28T00:41:22;49545.19;;;-141.28;100.00
7022;BME280;3552;42.664;23.406;2022-10-28T00:43:52;49535.38;;;-141.28;100.00
7022;BME280;3552;42.664;23.406;2022-10-28T00:46:25;49564.81;;;-141.28;100.00
7022;BME280;3552;42.664;23.406;2022-10-28T00:48:57;49523.59;;;-141.28;100.00
7022;BME280;3552;42.664;23.406;2022-10-28T00:51:26;49523.59;;;-141.28;100.00
7022;BME280;3552;42.664;23.406;2022-10-28T00:53:55;49509.88;;;-141.28;100.00
7022;BME280;3552;42.664;23.406;2022-10-28T00:56:23;49478.47;;;-141.28;100.00
7022;BME280;3552;42.664;23.406;2022-10-28T00:58:55;49458.84;;;-141.28;100.00
7022;BME280;3552;42.664;23.406;2022-10-28T01:01:25;49494.16;;;-141.28;100.00
7022;BME280;3552;42.664;23.406;2022-10-28T01:03:52;49458.84;;;-141.28;100.00
7022;BME280;3552;42.664;23.406;2022-10-28T01:06:20;49466.69;;;-141.28;100.00
7022;BME280;3552;42.664;23.406;2022-10-28T01:08:47;49403.91;;;-141.28;100.00
7022;BME280;3552;42.664;23.406;2022-10-28T01:11:34;49451.00;;;-141.28;100.00
7022;BME280;3552;42.664;23.406;2022-10-28T01:14:29;49519.69;;;-141.28;100.00
7022;BME280;3552;42.664;23.406;2022-10-28T01:17:08;49443.16;;;-141.28;100.00
7022;BME280;3552;42.664;23.406;2022-10-28T01:19:59;49458.84;;;-141.28;100.00
7022;BME280;3552;42.664;23.406;2022-10-28T01:22:37;49441.19;;;-141.28;100.00
7022;BME280;3552;42.664;23.406;2022-10-28T01:25:29;49458.84;;;-141.28;100.00
7022;BME280;3552;42.664;23.406;2022-10-28T01:28:22;49466.69;;;-141.28;100.00
7022;BME280;3552;42.664;23.406;2022-10-28T01:31:16;49470.63;;;-141.28;100.00
7022;BME280;3552;42.664;23.406;2022-10-28T01:33:49;49411.75;;;-141.28;100.00
7022;BME280;3552;42.664;23.406;2022-10-28T01:36:25;49392.13;;;-141.28;100.00
7022;BME280;3552;42.664;23.406;2022-10-28T01:38:55;49356.81;;;-141.28;100.00
7022;BME280;3552;42.664;23.406;2022-10-28T01:41:30;49348.97;;;-141.28;100.00
7022;BME280;3552;42.664;23.406;2022-10-28T01:44:05;49309.72;;;-141.28;100.00
7022;BME280;3552;42.664;23.406;2022-10-28T01:46:38;49317.56;;;-141.28;100.00
7022;BME280;3552;42.664;23.406;2022-10-28T01:49:10;49288.13;;;-141.28;100.00
7022;BME280;3552;42.664;23.406;2022-10-28T01:51:43;49290.09;;;-141.28;100.00
7022;BME280;3552;42.664;23.406;2022-10-28T01:54:14;49254.78;;;-141.28;100.00
7022;BME280;3552;42.664;23.406;2022-10-28T01:56:45;49258.69;;;-141.28;100.00
7022;BME280;3552;42.664;23.406;2022-10-28T01:59:15;49244.97;;;-141.28;100.00
7022;BME280;3552;42.664;23.406;2022-10-28T02:01:44;49250.84;;;-141.28;100.00
7022;BME280;3552;42.664;23.406;2022-10-28T02:04:11;49227.31;;;-141.28;100.00
7022;BME280;3552;42.664;23.406;2022-10-28T02:06:40;49213.56;;;-141.28;100.00
7022;BME280;3552;42.664;23.406;2022-10-28T02:09:19;49258.69;;;-141.28;100.00
7022;BME280;3552;42.664;23.406;2022-10-28T02:12:06;49278.31;;;-141.28;100.00
7022;BME280;3552;42.664;23.406;2022-10-28T02:14:57;49292.06;;;-141.28;100.00
7022;BME280;3552;42.664;23.406;2022-10-28T02:17:37;49286.16;;;-141.28;100.00
7022;BME280;3552;42.664;23.406;2022-10-28T02:20:14;49290.09;;;-141.28;100.00
7022;BME280;3552;42.664;23.406;2022-10-28T02:22:48;49241.03;;;-141.28;100.00
7022;BME280;3552;42.664;23.406;2022-10-28T02:25:19;49243.00;;;-141.28;100.00
7022;BME280;3552;42.664;23.406;2022-10-28T02:27:52;49235.16;;;-141.28;100.00
7022;BME280;3552;42.664;23.406;2022-10-28T02:30:23;49231.22;;;-141.28;100.00
7022;BME280;3552;42.664;23.406;2022-10-28T02:32:55;49211.59;;;-141.28;100.00
7022;BME280;3552;42.664;23.406;2022-10-28T02:35:27;49235.16;;;-141.28;100.00
7022;BME280;3552;42.664;23.406;2022-10-28T02:37:57;49217.50;;;-141.28;100.00
7022;BME280;3552;42.664;23.406;2022-10-28T02:40:27;49223.38;;;-141.28;100.00
7022;BME280;3552;42.664;23.406;2022-10-28T02:42:58;49199.84;;;-141.28;100.00
7022;BME280;3552;42.664;23.406;2022-10-28T02:45:30;49215.53;;;-141.28;100.00
7022;BME280;3552;42.664;23.406;2022-10-28T02:48:04;49195.91;;;-141.28;100.00
7022;BME280;3552;42.664;23.406;2022-10-28T02:50:35;49219.47;;;-141.28;100.00
7022;BME280;3552;42.664;23.406;2022-10-28T02:53:09;49203.75;;;-141.28;100.00
7022;BME280;3552;42.664;23.406;2022-10-28T02:55:39;49211.59;;;-141.28;100.00
7022;BME280;3552;42.664;23.406;2022-10-28T02:58:09;49195.91;;;-141.28;100.00
7022;BME280;3552;42.664;23.406;2022-10-28T03:00:37;49188.06;;;-141.28;100.00
7022;BME280;3552;42.664;23.406;2022-10-28T03:03:10;49199.84;;;-141.28;100.00
7022;BME280;3552;42.664;23.406;2022-10-28T03:05:37;49205.72;;;-141.28;100.00
7022;BME280;3552;42.664;23.406;2022-10-28T03:08:04;49199.84;;;-141.28;100.00
7022;BME280;3552;42.664;23.406;2022-10-28T03:10:31;49211.59;;;-141.28;100.00
7022;BME280;3552;42.664;23.406;2022-10-28T03:12:58;49186.09;;;-141.28;100.00
7022;BME280;3552;42.664;23.406;2022-10-28T03:15:25;49192.00;;;-141.28;100.00
7022;BME280;3552;42.664;23.406;2022-10-28T03:17:52;49203.75;;;-141.28;100.00
7022;BME280;3552;42.664;23.406;2022-10-28T03:20:20;49176.28;;;-141.28;100.00
7022;BME280;3552;42.664;23.406;2022-10-28T03:22:47;49182.19;;;-141.28;100.00
7022;BME280;3552;42.664;23.406;2022-10-28T03:25:14;49184.13;;;-141.28;100.00
7022;BME280;3552;42.664;23.406;2022-10-28T03:27:40;49192.00;;;-141.28;100.00
7022;BME280;3552;42.664;23.406;2022-10-28T03:30:08;49192.00;;;-141.28;100.00
7022;BME280;3552;42.664;23.406;2022-10-28T03:32:35;49188.06;;;-141.28;100.00
7022;BME280;3552;42.664;23.406;2022-10-28T03:35:03;49190.03;;;-141.28;100.00
7022;BME280;3552;42.664;23.406;2022-10-28T03:37:31;49192.00;;;-141.28;100.00
7022;BME280;3552;42.664;23.406;2022-10-28T03:39:58;49192.00;;;-141.28;100.00
7022;BME280;3552;42.664;23.406;2022-10-28T03:42:27;49188.06;;;-141.28;100.00
7022;BME280;3552;42.664;23.406;2022-10-28T03:44:53;49190.03;;;-141.28;100.00
7022;BME280;3552;42.664;23.406;2022-10-28T03:47:20;49184.13;;;-141.28;100.00
7022;BME280;3552;42.664;23.406;2022-10-28T03:49:48;49172.38;;;-141.28;100.00
7022;BME280;3552;42.664;23.406;2022-10-28T03:52:16;49195.91;;;-141.28;100.00
7022;BME280;3552;42.664;23.406;2022-10-28T03:54:44;49162.56;;;-141.28;100.00
7022;BME280;3552;42.664;23.406;2022-10-28T03:57:11;49180.22;;;-141.28;100.00
7022;BME280;3552;42.664;23.406;2022-10-28T03:59:38;49176.28;;;-141.28;100.00
7022;BME280;3552;42.664;23.406;2022-10-28T04:02:05;49199.84;;;-141.28;100.00
7022;BME280;3552;42.664;23.406;2022-10-28T04:04:32;49197.88;;;-141.28;100.00
7022;BME280;3552;42.664;23.406;2022-10-28T04:06:59;49199.84;;;-141.28;100.00
7022;BME280;3552;42.664;23.406;2022-10-28T04:09:25;49250.84;;;-141.28;100.00
7022;BME280;3552;42.664;23.406;2022-10-28T04:11:53;49274.41;;;-141.28;100.00
7022;BME280;3552;42.664;23.406;2022-10-28T04:14:20;49268.50;;;-141.28;100.00
7022;BME280;3552;42.664;23.406;2022-10-28T04:16:47;49274.41;;;-141.28;100.00
7022;BME280;3552;42.664;23.406;2022-10-28T04:19:15;49301.88;;;-141.28;100.00
7022;BME280;3552;42.664;23.406;2022-10-28T04:21:42;49303.84;;;-141.28;100.00
7022;BME280;3552;42.664;23.406;2022-10-28T04:24:09;49327.38;;;-141.28;100.00
7022;BME280;3552;42.664;23.406;2022-10-28T04:26:36;49339.16;;;-141.28;100.00
7022;BME280;3552;42.664;23.406;2022-10-28T04:29:05;49352.88;;;-141.28;100.00
7022;BME280;3552;42.664;23.406;2022-10-28T04:31:32;49356.81;;;-141.28;100.00
7022;BME280;3552;42.664;23.406;2022-10-28T04:33:59;49319.53;;;-141.28;100.00
7022;BME280;3552;42.664;23.406;2022-10-28T04:36:25;49392.13;;;-141.28;100.00
7022;BME280;3552;42.664;23.406;2022-10-28T04:38:53;49388.22;;;-141.28;100.00
7022;BME280;3552;42.664;23.406;2022-10-28T04:41:20;49396.06;;;-141.28;100.00
7022;BME280;3552;42.664;23.406;2022-10-28T04:43:47;49384.28;;;-141.28;100.00
7022;BME280;3552;42.664;23.406;2022-10-28T04:46:16;49376.44;;;-141.28;100.00
7022;BME280;3552;42.664;23.406;2022-10-28T04:48:45;49417.63;;;-141.28;100.00
7022;BME280;3552;42.664;23.406;2022-10-28T04:51:12;49427.44;;;-141.28;100.00
7022;BME280;3552;42.664;23.406;2022-10-28T04:53:39;49454.94;;;-141.28;100.00
7022;BME280;3552;42.664;23.406;2022-10-28T04:56:07;49443.16;;;-141.28;100.00
7022;BME280;3552;42.664;23.406;2022-10-28T04:58:35;49447.06;;;-141.28;100.00
7022;BME280;3552;42.664;23.406;2022-10-28T05:01:04;49443.16;;;-141.28;100.00
7022;BME280;3552;42.664;23.406;2022-10-28T05:03:33;49458.84;;;-141.28;100.00
7022;BME280;3552;42.664;23.406;2022-10-28T05:06:01;49460.81;;;-141.28;100.00
7022;BME280;3552;42.664;23.406;2022-10-28T05:08:28;49458.84;;;-141.28;100.00
7022;BME280;3552;42.664;23.406;2022-10-28T05:10:55;49478.47;;;-141.28;100.00
7022;BME280;3552;42.664;23.406;2022-10-28T05:13:22;49474.53;;;-141.28;100.00
7022;BME280;3552;42.664;23.406;2022-10-28T05:15:49;49480.44;;;-141.28;100.00
7022;BME280;3552;42.664;23.406;2022-10-28T05:18:16;49498.09;;;-141.28;100.00
7022;BME280;3552;42.664;23.406;2022-10-28T05:20:46;49596.22;;;-141.28;100.00
7022;BME280;3552;42.664;23.406;2022-10-28T05:23:17;49664.91;;;-141.28;100.00
7022;BME280;3552;42.664;23.406;2022-10-28T05:25:44;49804.22;;;-141.28;100.00
7022;BME280;3552;42.664;23.406;2022-10-28T05:28:10;49933.75;;;-141.28;100.00
7022;BME280;3552;42.664;23.406;2022-10-28T05:30:37;49961.22;;;-141.28;100.00
7022;BME280;3552;42.664;23.406;2022-10-28T05:33:04;49990.66;;;-141.28;100.00
7022;BME280;3552;42.664;23.406;2022-10-28T05:35:31;49851.31;;;-141.28;100.00
7022;BME280;3552;42.664;23.406;2022-10-28T05:38:00;49749.28;;;-141.28;100.00
7022;BME280;3552;42.664;23.406;2022-10-28T05:40:27;50096.66;;;-141.28;100.00
7022;BME280;3552;42.664;23.406;2022-10-28T05:42:54;50526.50;;;-141.28;100.00
7022;BME280;3552;42.664;23.406;2022-10-28T05:45:21;50463.69;;;-141.28;100.00
7022;BME280;3552;42.664;23.406;2022-10-28T05:47:48;50292.91;;;-141.28;100.00
7022;BME280;3552;42.664;23.406;2022-10-28T05:50:16;49957.31;;;-141.28;100.00
7022;BME280;3552;42.664;23.406;2022-10-28T05:52:45;49674.72;;;-141.28;100.00
7022;BME280;3552;42.664;23.406;2022-10-28T05:55:15;49584.44;;;-141.28;100.00
7022;BME280;3552;42.664;23.406;2022-10-28T05:57:43;49659.00;;;-141.28;100.00
7022;BME280;3552;42.664;23.406;2022-10-28T06:00:11;49513.78;;;-141.28;100.00
7022;BME280;3552;42.664;23.406;2022-10-28T06:02:38;49521.63;;;-141.28;100.00
7022;BME280;3552;42.664;23.406;2022-10-28T06:05:07;49655.09;;;-141.28;100.00
7022;BME280;3552;42.664;23.406;2022-10-28T06:07:35;49710.03;;;-141.28;100.00
7022;BME280;3552;42.664;23.406;2022-10-28T06:10:03;49851.31;;;-141.28;100.00
7022;BME280;3552;42.664;23.406;2022-10-28T06:12:32;49912.16;;;-141.28;100.00
7022;BME280;3552;42.664;23.406;2022-10-28T06:14:58;50177.13;;;-141.28;100.00
7022;BME280;3552;42.664;23.406;2022-10-28T06:17:26;50326.28;;;-141.28;100.00
7022;BME280;3552;42.664;23.406;2022-10-28T06:19:53;50389.09;;;-141.28;100.00
7022;BME280;3552;42.664;23.406;2022-10-28T06:22:20;50438.16;;;-141.28;100.00
7022;BME280;3552;42.664;23.406;2022-10-28T06:24:47;50455.84;;;-141.28;100.00
7022;BME280;3552;42.664;23.406;2022-10-28T06:27:14;50499.00;;;-141.28;100.00
7022;BME280;3552;42.664;23.406;2022-10-28T06:29:44;50542.19;;;-141.28;100.00
7022;BME280;3552;42.664;23.406;2022-10-28T06:32:11;50514.72;;;-141.28;100.00
7022;BME280;3552;42.664;23.406;2022-10-28T06:34:38;50593.22;;;-141.28;100.00
7022;BME280;3552;42.664;23.406;2022-10-28T06:37:05;50548.09;;;-141.28;100.00
7022;BME280;3552;42.664;23.406;2022-10-28T06:39:32;50512.75;;;-141.28;100.00
7022;BME280;3552;42.664;23.406;2022-10-28T06:41:59;50487.25;;;-141.28;100.00
7022;BME280;3552;42.664;23.406;2022-10-28T06:44:26;50436.19;;;-141.28;100.00
7022;BME280;3552;42.664;23.406;2022-10-28T06:46:55;50406.75;;;-141.28;100.00
7022;BME280;3552;42.664;23.406;2022-10-28T06:49:22;50332.19;;;-141.28;100.00
7022;BME280;3552;42.664;23.406;2022-10-28T06:51:49;50263.47;;;-141.28;100.00
7022;BME280;3552;42.664;23.406;2022-10-28T06:54:16;50373.38;;;-141.28;100.00
7022;BME280;3552;42.664;23.406;2022-10-28T06:56:43;50459.75;;;-141.28;100.00
7022;BME280;3552;42.664;23.406;2022-10-28T06:59:12;50459.75;;;-141.28;100.00
7022;BME280;3552;42.664;23.406;2022-10-28T07:01:39;50444.06;;;-141.28;100.00
7022;BME280;3552;42.664;23.406;2022-10-28T07:04:10;50300.78;;;-141.28;100.00
7022;BME280;3552;42.664;23.406;2022-10-28T07:06:39;50273.28;;;-141.28;100.00
7022;BME280;3552;42.664;23.406;2022-10-28T07:09:06;50216.38;;;-141.28;100.00
7022;BME280;3552;42.664;23.406;2022-10-28T07:11:33;50102.53;;;-141.28;100.00
7022;BME280;3552;42.664;23.406;2022-10-28T07:14:00;50012.25;;;-141.28;100.00
7022;BME280;3552;42.664;23.406;2022-10-28T07:16:27;50094.69;;;-141.28;100.00
7022;BME280;3552;42.664;23.406;2022-10-28T07:18:54;50141.78;;;-141.28;100.00
7022;BME280;3552;42.664;23.406;2022-10-28T07:21:24;50039.72;;;-141.28;100.00
7022;BME280;3552;42.664;23.406;2022-10-28T07:23:53;49933.75;;;-141.28;100.00
7022;BME280;3552;42.664;23.406;2022-10-28T07:26:21;49886.66;;;-141.28;100.00
7022;BME280;3552;42.664;23.406;2022-10-28T07:28:48;50051.50;;;-141.28;100.00
7022;BME280;3552;42.664;23.406;2022-10-28T07:31:15;50188.91;;;-141.28;100.00
7022;BME280;3552;42.664;23.406;2022-10-28T07:33:43;50143.75;;;-141.28;100.00
7022;BME280;3552;42.664;23.406;2022-10-28T07:36:10;50016.19;;;-141.28;100.00
7022;BME280;3552;42.664;23.406;2022-10-28T07:38:38;49935.72;;;-141.28;100.00
7022;BME280;3552;42.664;23.406;2022-10-28T07:41:07;49886.66;;;-141.28;100.00
7022;BME280;3552;42.664;23.406;2022-10-28T07:43:35;49717.88;;;-141.28;100.00
7022;BME280;3552;42.664;23.406;2022-10-28T07:46:03;49668.81;;;-141.28;100.00
7022;BME280;3552;42.664;23.406;2022-10-28T07:48:30;49611.91;;;-141.28;100.00
7022;BME280;3552;42.664;23.406;2022-10-28T07:50:59;49682.56;;;-141.28;100.00
7022;BME280;3552;42.664;23.406;2022-10-28T07:53:26;49916.09;;;-141.28;100.00
7022;BME280;3552;42.664;23.406;2022-10-28T07:55:56;49929.81;;;-141.28;100.00
7022;BME280;3552;42.664;23.406;2022-10-28T07:58:23;49823.84;;;-141.28;100.00
7022;BME280;3552;42.664;23.406;2022-10-28T08:00:50;49821.88;;;-141.28;100.00
7022;BME280;3552;42.664;23.406;2022-10-28T08:03:17;49761.06;;;-141.28;100.00
7022;BME280;3552;42.664;23.406;2022-10-28T08:05:45;49749.28;;;-141.28;100.00
7022;BME280;3552;42.664;23.406;2022-10-28T08:08:11;49639.38;;;-141.28;100.00
7022;BME280;3552;42.664;23.406;2022-10-28T08:10:38;49486.31;;;-141.28;100.00
7022;BME280;3552;42.664;23.406;2022-10-28T08:13:08;49470.63;;;-141.28;100.00
7022;BME280;3552;42.664;23.406;2022-10-28T08:15:35;49494.16;;;-141.28;100.00
7022;BME280;3552;42.664;23.406;2022-10-28T08:18:03;49639.38;;;-141.28;100.00
7022;BME280;3552;42.664;23.406;2022-10-28T08:20:29;49635.47;;;-141.28;100.00
7022;BME280;3552;42.664;23.406;2022-10-28T08:22:57;49725.72;;;-141.28;100.00
7022;BME280;3552;42.664;23.406;2022-10-28T08:25:24;49780.69;;;-141.28;100.00
7022;BME280;3552;42.664;23.406;2022-10-28T08:27:51;49588.34;;;-141.28;100.00
7022;BME280;3552;42.664;23.406;2022-10-28T08:30:19;49345.03;;;-141.28;100.00
7022;BME280;3552;42.664;23.406;2022-10-28T08:32:46;49398.03;;;-141.28;100.00
7022;BME280;3552;42.664;23.406;2022-10-28T08:35:13;49503.97;;;-141.28;100.00
7022;BME280;3552;42.664;23.406;2022-10-28T08:37:40;49637.41;;;-141.28;100.00
7022;BME280;3552;42.664;23.406;2022-10-28T08:40:11;49409.78;;;-141.28;100.00
7022;BME280;3552;42.664;23.406;2022-10-28T08:42:43;49372.50;;;-141.28;100.00
7022;BME280;3552;42.664;23.406;2022-10-28T08:45:23;49415.69;;;-141.28;100.00
7022;BME280;3552;42.664;23.406;2022-10-28T08:48:00;49401.94;;;-141.28;100.00
7022;BME280;3552;42.664;23.406;2022-10-28T08:50:29;49435.31;;;-141.28;100.00
7022;BME280;3552;42.664;23.406;2022-10-28T08:53:01;49623.69;;;-141.28;100.00
7022;BME280;3552;42.664;23.406;2022-10-28T08:55:32;49678.63;;;-141.28;100.00
7022;BME280;3552;42.664;23.406;2022-10-28T08:58:05;49706.09;;;-141.28;100.00
7022;BME280;3552;42.664;23.406;2022-10-28T09:00:35;49580.50;;;-141.28;100.00
7022;BME280;3552;42.664;23.406;2022-10-28T09:03:13;49549.13;;;-141.28;100.00
7022;BME280;3552;42.664;23.406;2022-10-28T09:05:43;49447.06;;;-141.28;100.00
7022;BME280;3552;42.664;23.406;2022-10-28T09:08:19;49521.63;;;-141.28;100.00
7022;BME280;3552;42.664;23.406;2022-10-28T09:13:45;49341.13;;;-141.28;100.00
7022;BME280;3552;42.664;23.406;2022-10-28T09:16:27;49295.97;;;-141.28;100.00
7022;BME280;3552;42.664;23.406;2022-10-28T09:19:02;49305.78;;;-141.28;100.00
7022;BME280;3552;42.664;23.406;2022-10-28T09:21:31;49315.59;;;-141.28;100.00
7022;BME280;3552;42.664;23.406;2022-10-28T09:24:03;49235.16;;;-141.28;100.00
7022;BME280;3552;42.664;23.406;2022-10-28T09:26:40;49252.81;;;-141.28;100.00
7022;BME280;3552;42.664;23.406;2022-10-28T09:29:20;49266.56;;;-141.28;100.00
7022;BME280;3552;42.664;23.406;2022-10-28T09:32:09;49262.63;;;-141.28;100.00
7022;BME280;3552;42.664;23.406;2022-10-28T09:34:42;49243.00;;;-141.28;100.00
7022;BME280;3552;42.664;23.406;2022-10-28T09:37:14;49235.16;;;-141.28;100.00
7022;BME280;3552;42.664;23.406;2022-10-28T09:39:44;49152.75;;;-141.28;100.00
7022;BME280;3552;42.664;23.406;2022-10-28T09:42:16;49207.69;;;-141.28;100.00
7022;BME280;3552;42.664;23.406;2022-10-28T09:44:49;49184.13;;;-141.28;100.00
7022;BME280;3552;42.664;23.406;2022-10-28T09:47:21;49203.75;;;-141.28;100.00
7022;BME280;3552;42.664;23.406;2022-10-28T09:49:52;49180.22;;;-141.28;100.00
7022;BME280;3552;42.664;23.406;2022-10-28T09:52:22;49117.44;;;-141.28;100.00
7022;BME280;3552;42.664;23.406;2022-10-28T09:54:51;49080.16;;;-141.28;98.32
7022;BME280;3552;42.664;23.406;2022-10-28T09:57:21;49109.59;;;-141.28;92.18
7022;BME280;3552;42.664;23.406;2022-10-28T09:59:51;48997.75;;;-141.28;94.13
7022;BME280;3552;42.664;23.406;2022-10-28T10:02:26;48991.84;;;-141.28;91.97
7022;BME280;3552;42.664;23.406;2022-10-28T10:04:54;49070.34;;;-141.28;85.32
7022;BME280;3552;42.664;23.406;2022-10-28T10:07:29;49070.34;;;-141.28;85.57
7022;BME280;3552;42.664;23.406;2022-10-28T10:09:59;49062.50;;;-141.28;79.43
7022;BME280;3552;42.664;23.406;2022-10-28T10:12:28;49054.66;;;-141.28;83.11
7022;BME280;3552;42.664;23.406;2022-10-28T10:14:57;49036.97;;;-141.28;77.52
7022;BME280;3552;42.664;23.406;2022-10-28T10:17:32;49035.03;;;-141.28;75.74
7022;BME280;3552;42.664;23.406;2022-10-28T10:20:04;49140.97;;;-141.28;81.93
7022;BME280;3552;42.664;23.406;2022-10-28T10:22:34;49113.50;;;-141.28;84.17
7022;BME280;3552;42.664;23.406;2022-10-28T10:25:01;49031.09;;;-141.28;83.17
7022;BME280;3552;42.664;23.406;2022-10-28T10:27:29;49109.59;;;-141.28;81.39
7022;BME280;3552;42.664;23.406;2022-10-28T10:29:57;49131.16;;;-141.28;84.98
7022;BME280;3552;42.664;23.406;2022-10-28T10:32:27;49082.13;;;-141.28;81.29
7022;BME280;3552;42.664;23.406;2022-10-28T10:35:00;49099.78;;;-141.28;76.12
7022;BME280;3552;42.664;23.406;2022-10-28T10:37:28;49050.72;;;-141.28;71.91
7022;BME280;3552;42.664;23.406;2022-10-28T10:40:03;49086.03;;;-141.28;71.64
7022;BME280;3552;42.664;23.406;2022-10-28T10:42:32;49064.44;;;-141.28;71.13
7022;BME280;3552;42.664;23.406;2022-10-28T10:45:19;49088.00;;;-141.28;74.10
7022;BME280;3552;42.664;23.406;2022-10-28T10:47:47;49052.69;;;-141.28;72.74
7022;BME280;3552;42.664;23.406;2022-10-28T10:50:23;49089.97;;;-141.28;72.57
7022;BME280;3552;42.664;23.406;2022-10-28T10:52:51;48887.88;;;-141.28;70.10
7022;BME280;3552;42.664;23.406;2022-10-28T10:55:24;48989.91;;;-141.28;67.66
7022;BME280;3552;42.664;23.406;2022-10-28T10:57:54;48952.63;;;-141.28;64.42
7022;BME280;3552;42.664;23.406;2022-10-28T11:00:24;48968.31;;;-141.28;64.23
7022;BME280;3552;42.664;23.406;2022-10-28T11:02:56;48980.09;;;-141.28;64.56
7022;BME280;3552;42.664;23.406;2022-10-28T11:05:23;49001.66;;;-141.28;63.06
7022;BME280;3552;42.664;23.406;2022-10-28T11:07:50;49050.72;;;-141.28;63.72
7022;BME280;3552;42.664;23.406;2022-10-28T11:10:22;49025.22;;;-141.28;65.16
7022;BME280;3552;42.664;23.406;2022-10-28T11:12:51;49015.41;;;-141.28;64.84
7022;BME280;3552;42.664;23.406;2022-10-28T11:15:24;48989.91;;;-141.28;62.48
7022;BME280;3552;42.664;23.406;2022-10-28T11:17:58;48972.25;;;-141.28;61.53
7022;BME280;3552;42.664;23.406;2022-10-28T11:20:27;48899.66;;;-141.28;59.45
7022;BME280;3552;42.664;23.406;2022-10-28T11:23:06;48840.78;;;-141.28;59.85
7022;BME280;3552;42.664;23.406;2022-10-28T11:25:39;48964.38;;;-141.28;60.54
7022;BME280;3552;42.664;23.406;2022-10-28T11:28:25;48956.53;;;-141.28;58.51
7022;BME280;3552;42.664;23.406;2022-10-28T11:31:02;48870.22;;;-141.28;59.14
7022;BME280;3552;42.664;23.406;2022-10-28T11:33:41;48913.38;;;-141.28;57.90
7022;BME280;3552;42.664;23.406;2022-10-28T11:36:15;48893.75;;;-141.28;54.64
7022;BME280;3552;42.664;23.406;2022-10-28T11:38:58;48936.91;;;-141.28;53.67
7022;BME280;3552;42.664;23.406;2022-10-28T11:41:37;48982.03;;;-141.28;56.23
7022;BME280;3552;42.664;23.406;2022-10-28T11:44:14;48995.78;;;-141.28;58.17
7022;BME280;3552;42.664;23.406;2022-10-28T11:46:51;49013.44;;;-141.28;58.83
7022;BME280;3552;42.664;23.406;2022-10-28T11:49:37;48984.00;;;-141.28;57.21
7022;BME280;3552;42.664;23.406;2022-10-28T11:52:21;48913.38;;;-141.28;55.64
7022;BME280;3552;42.664;23.406;2022-10-28T11:55:01;48944.78;;;-141.28;51.83
7022;BME280;3552;42.664;23.406;2022-10-28T11:57:48;48954.59;;;-141.28;52.10
7022;BME280;3552;42.664;23.406;2022-10-28T12:00:29;48915.34;;;-141.28;49.90
7022;BME280;3552;42.664;23.406;2022-10-28T12:03:22;48925.16;;;-141.28;50.21
7022;BME280;3552;42.664;23.406;2022-10-28T12:06:02;48905.53;;;-141.28;49.50
7022;BME280;3552;42.664;23.406;2022-10-28T12:08:44;48878.06;;;-141.28;48.42
7022;BME280;3552;42.664;23.406;2022-10-28T12:11:24;48827.06;;;-141.28;47.27
7022;BME280;3552;42.664;23.406;2022-10-28T12:14:02;48821.16;;;-141.28;47.12
7022;BME280;3552;42.664;23.406;2022-10-28T12:16:39;48864.34;;;-141.28;47.05
7022;BME280;3552;42.664;23.406;2022-10-28T12:19:12;48874.13;;;-141.28;47.06
7022;BME280;3552;42.664;23.406;2022-10-28T12:21:57;48921.22;;;-141.28;47.25
7022;BME280;3552;42.664;23.406;2022-10-28T12:24:25;48921.22;;;-141.28;47.79
7022;BME280;3552;42.664;23.406;2022-10-28T12:26:55;48882.00;;;-141.28;46.67
7022;BME280;3552;42.664;23.406;2022-10-28T12:29:25;48866.28;;;-141.28;46.49
7022;BME280;3552;42.664;23.406;2022-10-28T12:31:56;48883.94;;;-141.28;46.25
7022;BME280;3552;42.664;23.406;2022-10-28T12:34:33;48917.31;;;-141.28;46.92
7022;BME280;3552;42.664;23.406;2022-10-28T12:37:06;48889.84;;;-141.28;47.25
7022;BME280;3552;42.664;23.406;2022-10-28T12:39:38;48762.31;;;-141.28;45.73
7022;BME280;3552;42.664;23.406;2022-10-28T12:42:11;48846.69;;;-141.28;45.53
7022;BME280;3552;42.664;23.406;2022-10-28T12:44:41;48813.31;;;-141.28;44.43
7022;BME280;3552;42.664;23.406;2022-10-28T12:47:16;48848.63;;;-141.28;45.20
7022;BME280;3552;42.664;23.406;2022-10-28T12:49:51;48840.78;;;-141.28;44.79
7022;BME280;3552;42.664;23.406;2022-10-28T12:52:31;48840.78;;;-141.28;44.68
7022;BME280;3552;42.664;23.406;2022-10-28T12:55:09;48823.13;;;-141.28;45.17
7022;BME280;3552;42.664;23.406;2022-10-28T12:57:42;48778.00;;;-141.28;44.59
7022;BME280;3552;42.664;23.406;2022-10-28T13:00:15;48791.75;;;-141.28;44.03
7022;BME280;3552;42.664;23.406;2022-10-28T13:02:48;48791.75;;;-141.28;43.30
7022;BME280;3552;42.664;23.406;2022-10-28T13:05:22;48768.19;;;-141.28;43.16